sensor_id;sensor_type;location;lat;lon;timestamp;pressure;altitude;pressure_sealevel;temperature;humidity
2397;BME280;1209;48.410;9.054;2023-07-30T00:01:46;95904.34;;;19.97;100.00
2397;BME280;1209;48.410;9.054;2023-07-30T00:04:12;95897.50;;;20.01;100.00
2397;BME280;1209;48.410;9.054;2023-07-30T00:06:37;95890.28;;;19.97;100.00
2397;BME280;1209;48.410;9.054;2023-07-30T00:09:02;95887.41;;;19.98;100.00
2397;BME280;1209;48.410;9.054;2023-07-30T00:11:29;95893.50;;;19.99;100.00
2397;BME280;1209;48.410;9.054;2023-07-30T00:13:54;95892.63;;;19.93;100.00
2397;BME280;1209;48.410;9.054;2023-07-30T00:16:19;95891.03;;;19.92;100.00
2397;BME280;1209;48.410;9.054;2023-07-30T00:18:45;95903.22;;;19.93;100.00
2397;BME280;1209;48.410;9.054;2023-07-30T00:21:10;95908.81;;;19.80;100.00
2397;BME280;1209;48.410;9.054;2023-07-30T00:23:35;95913.56;;;19.78;100.00
2397;BME280;1209;48.410;9.054;2023-07-30T00:26:01;95909.47;;;19.70;100.00
2397;BME280;1209;48.410;9.054;2023-07-30T00:28:26;95911.81;;;19.67;100.00
2397;BME280;1209;48.410;9.054;2023-07-30T00:30:51;95907.88;;;19.53;100.00
2397;BME280;1209;48.410;9.054;2023-07-30T00:33:17;95905.53;;;19.56;100.00
2397;BME280;1209;48.410;9.054;2023-07-30T00:35:42;95910.16;;;19.49;100.00
2397;BME280;1209;48.410;9.054;2023-07-30T00:38:07;95914.25;;;19.40;100.00
2397;BME280;1209;48.410;9.054;2023-07-30T00:40:32;95920.78;;;19.37;100.00
2397;BME280;1209;48.410;9.054;2023-07-30T00:42:58;95924.34;;;19.43;100.00
2397;BME280;1209;48.410;9.054;2023-07-30T00:45:23;95927.25;;;19.41;100.00
2397;BME280;1209;48.410;9.054;2023-07-30T00:47:49;95927.13;;;19.36;100.00
2397;BME280;1209;48.410;9.054;2023-07-30T00:50:15;95928.84;;;19.42;100.00
2397;BME280;1209;48.410;9.054;2023-07-30T00:52:42;95936.91;;;19.36;100.00
2397;BME280;1209;48.410;9.054;2023-07-30T00:55:09;95941.16;;;19.37;100.00
2397;BME280;1209;48.410;9.054;2023-07-30T00:57:35;95946.63;;;19.30;100.00
2397;BME280;1209;48.410;9.054;2023-07-30T01:00:01;95952.75;;;19.19;100.00
2397;BME280;1209;48.410;9.054;2023-07-30T01:02:29;95955.28;;;19.26;100.00
2397;BME280;1209;48.410;9.054;2023-07-30T01:04:56;95956.56;;;19.23;100.00
2397;BME280;1209;48.410;9.054;2023-07-30T01:07:22;95960.94;;;19.17;100.00
2397;BME280;1209;48.410;9.054;2023-07-30T01:09:47;95955.31;;;19.14;100.00
2397;BME280;1209;48.410;9.054;2023-07-30T01:12:13;95961.75;;;19.18;100.00
2397;BME280;1209;48.410;9.054;2023-07-30T01:14:39;95952.81;;;19.07;100.00
2397;BME280;1209;48.410;9.054;2023-07-30T01:17:05;95957.78;;;19.04;100.00
2397;BME280;1209;48.410;9.054;2023-07-30T01:19:30;95949.38;;;19.07;100.00
2397;BME280;1209;48.410;9.054;2023-07-30T01:21:56;95948.09;;;19.09;100.00
2397;BME280;1209;48.410;9.054;2023-07-30T01:24:21;95944.16;;;19.12;100.00
2397;BME280;1209;48.410;9.054;2023-07-30T01:26:51;95942.75;;;18.93;100.00
2397;BME280;1209;48.410;9.054;2023-07-30T01:29:22;95944.22;;;18.88;100.00
2397;BME280;1209;48.410;9.054;2023-07-30T01:31:55;95948.47;;;19.01;100.00
2397;BME280;1209;48.410;9.054;2023-07-30T01:34:23;95947.44;;;19.02;100.00
2397;BME280;1209;48.410;9.054;2023-07-30T01:36:49;95959.19;;;18.95;100.00
2397;BME280;1209;48.410;9.054;2023-07-30T01:39:15;95950.34;;;18.77;100.00
2397;BME280;1209;48.410;9.054;2023-07-30T01:41:40;95951.63;;;18.75;100.00
2397;BME280;1209;48.410;9.054;2023-07-30T01:44:06;95952.91;;;18.72;100.00
2397;BME280;1209;48.410;9.054;2023-07-30T01:46:31;95946.34;;;18.63;100.00
2397;BME280;1209;48.410;9.054;2023-07-30T01:48:57;95943.47;;;18.65;100.00
2397;BME280;1209;48.410;9.054;2023-07-30T01:51:22;95950.25;;;18.61;100.00
2397;BME280;1209;48.410;9.054;2023-07-30T01:53:47;95950.38;;;18.54;100.00
2397;BME280;1209;48.410;9.054;2023-07-30T01:56:12;95938.66;;;18.50;100.00
2397;BME280;1209;48.410;9.054;2023-07-30T01:58:38;95937.03;;;18.49;100.00
2397;BME280;1209;48.410;9.054;2023-07-30T02:01:03;95938.97;;;18.42;100.00
2397;BME280;1209;48.410;9.054;2023-07-30T02:03:28;95940.34;;;18.44;100.00
2397;BME280;1209;48.410;9.054;2023-07-30T02:05:53;95940.25;;;18.39;100.00
2397;BME280;1209;48.410;9.054;2023-07-30T02:08:19;95939.91;;;18.36;100.00
2397;BME280;1209;48.410;9.054;2023-07-30T02:10:44;95934.63;;;18.24;100.00
2397;BME280;1209;48.410;9.054;2023-07-30T02:13:09;95943.00;;;18.33;100.00
2397;BME280;1209;48.410;9.054;2023-07-30T02:15:39;95931.75;;;18.37;100.00
2397;BME280;1209;48.410;9.054;2023-07-30T02:18:05;95943.69;;;18.40;100.00
2397;BME280;1209;48.410;9.054;2023-07-30T02:20:30;95936.81;;;18.27;100.00
2397;BME280;1209;48.410;9.054;2023-07-30T02:22:55;95944.38;;;18.35;100.00
2397;BME280;1209;48.410;9.054;2023-07-30T02:25:21;95955.31;;;18.27;100.00
2397;BME280;1209;48.410;9.054;2023-07-30T02:27:46;95941.88;;;18.29;100.00
2397;BME280;1209;48.410;9.054;2023-07-30T02:30:12;95960.03;;;18.37;100.00
2397;BME280;1209;48.410;9.054;2023-07-30T02:32:37;95950.81;;;18.39;100.00
2397;BME280;1209;48.410;9.054;2023-07-30T02:35:02;95959.09;;;18.43;100.00
2397;BME280;1209;48.410;9.054;2023-07-30T02:37:28;95965.91;;;18.50;100.00
2397;BME280;1209;48.410;9.054;2023-07-30T02:39:53;95963.50;;;18.49;100.00
2397;BME280;1209;48.410;9.054;2023-07-30T02:42:18;95964.06;;;18.51;100.00
2397;BME280;1209;48.410;9.054;2023-07-30T02:44:43;95964.53;;;18.48;100.00
2397;BME280;1209;48.410;9.054;2023-07-30T02:47:09;95956.69;;;18.30;100.00
2397;BME280;1209;48.410;9.054;2023-07-30T02:49:34;95956.09;;;18.39;100.00
2397;BME280;1209;48.410;9.054;2023-07-30T02:51:59;95955.53;;;18.37;100.00
2397;BME280;1209;48.410;9.054;2023-07-30T02:54:25;95967.72;;;18.38;100.00
2397;BME280;1209;48.410;9.054;2023-07-30T02:56:50;95951.75;;;18.21;100.00
2397;BME280;1209;48.410;9.054;2023-07-30T02:59:15;95958.75;;;18.16;100.00
2397;BME280;1209;48.410;9.054;2023-07-30T03:01:40;95962.44;;;18.15;100.00
2397;BME280;1209;48.410;9.054;2023-07-30T03:04:06;95956.81;;;18.23;100.00
2397;BME280;1209;48.410;9.054;2023-07-30T03:06:31;95955.09;;;18.05;100.00
2397;BME280;1209;48.410;9.054;2023-07-30T03:08:57;95957.28;;;18.08;100.00
2397;BME280;1209;48.410;9.054;2023-07-30T03:11:22;95956.25;;;18.09;100.00
2397;BME280;1209;48.410;9.054;2023-07-30T03:13:48;95950.16;;;18.09;100.00
2397;BME280;1209;48.410;9.054;2023-07-30T03:16:14;95960.94;;;18.07;100.00
2397;BME280;1209;48.410;9.054;2023-07-30T03:18:39;95952.56;;;18.10;100.00
2397;BME280;1209;48.410;9.054;2023-07-30T03:21:04;95957.16;;;18.15;100.00
2397;BME280;1209;48.410;9.054;2023-07-30T03:23:30;95963.13;;;18.10;100.00
2397;BME280;1209;48.410;9.054;2023-07-30T03:25:56;95963.03;;;18.05;100.00
2397;BME280;1209;48.410;9.054;2023-07-30T03:28:21;95960.25;;;18.00;100.00
2397;BME280;1209;48.410;9.054;2023-07-30T03:30:47;95960.09;;;17.95;100.00
2397;BME280;1209;48.410;9.054;2023-07-30T03:33:12;95964.69;;;17.88;100.00
2397;BME280;1209;48.410;9.054;2023-07-30T03:35:37;95962.88;;;17.88;100.00
2397;BME280;1209;48.410;9.054;2023-07-30T03:38:02;95955.50;;;17.90;100.00
2397;BME280;1209;48.410;9.054;2023-07-30T03:40:28;95956.78;;;17.88;100.00
2397;BME280;1209;48.410;9.054;2023-07-30T03:42:54;95956.31;;;17.91;100.00
2397;BME280;1209;48.410;9.054;2023-07-30T03:45:19;95949.19;;;17.91;100.00
2397;BME280;1209;48.410;9.054;2023-07-30T03:47:44;95962.75;;;17.95;100.00
2397;BME280;1209;48.410;9.054;2023-07-30T03:50:10;95964.97;;;17.98;100.00
2397;BME280;1209;48.410;9.054;2023-07-30T03:52:35;95965.97;;;17.97;100.00
2397;BME280;1209;48.410;9.054;2023-07-30T03:55:00;95965.19;;;18.08;100.00
2397;BME280;1209;48.410;9.054;2023-07-30T03:57:26;95970.59;;;18.13;100.00
2397;BME280;1209;48.410;9.054;2023-07-30T03:59:51;95975.44;;;18.16;100.00
2397;BME280;1209;48.410;9.054;2023-07-30T04:02:16;95982.78;;;18.14;100.00
2397;BME280;1209;48.410;9.054;2023-07-30T04:04:42;95972.31;;;18.08;100.00
2397;BME280;1209;48.410;9.054;2023-07-30T04:07:13;95980.38;;;18.13;100.00
2397;BME280;1209;48.410;9.054;2023-07-30T04:09:38;95980.84;;;18.21;100.00
2397;BME280;1209;48.410;9.054;2023-07-30T04:12:04;95985.09;;;18.22;100.00
2397;BME280;1209;48.410;9.054;2023-07-30T04:14:29;95980.72;;;18.28;100.00
2397;BME280;1209;48.410;9.054;2023-07-30T04:16:54;95990.59;;;18.33;100.00
2397;BME280;1209;48.410;9.054;2023-07-30T04:19:20;95995.44;;;18.47;100.00
2397;BME280;1209;48.410;9.054;2023-07-30T04:21:46;95996.94;;;18.55;100.00
2397;BME280;1209;48.410;9.054;2023-07-30T04:24:11;95991.88;;;18.53;100.00
2397;BME280;1209;48.410;9.054;2023-07-30T04:26:36;96003.94;;;18.61;100.00
2397;BME280;1209;48.410;9.054;2023-07-30T04:29:01;96004.41;;;18.58;100.00
2397;BME280;1209;48.410;9.054;2023-07-30T04:31:27;96017.88;;;18.68;100.00
2397;BME280;1209;48.410;9.054;2023-07-30T04:33:52;96015.38;;;18.62;100.00
2397;BME280;1209;48.410;9.054;2023-07-30T04:36:17;96019.25;;;18.59;100.00
2397;BME280;1209;48.410;9.054;2023-07-30T04:38:43;96016.75;;;18.64;100.00
2397;BME280;1209;48.410;9.054;2023-07-30T04:41:08;96015.72;;;18.65;100.00
2397;BME280;1209;48.410;9.054;2023-07-30T04:43:33;96017.31;;;18.66;100.00
2397;BME280;1209;48.410;9.054;2023-07-30T04:45:58;96013.16;;;18.70;100.00
2397;BME280;1209;48.410;9.054;2023-07-30T04:48:24;96009.03;;;18.74;100.00
2397;BME280;1209;48.410;9.054;2023-07-30T04:50:49;96006.94;;;18.76;100.00
2397;BME280;1209;48.410;9.054;2023-07-30T04:53:14;96007.28;;;18.80;100.00
2397;BME280;1209;48.410;9.054;2023-07-30T04:55:41;96007.53;;;18.78;100.00
2397;BME280;1209;48.410;9.054;2023-07-30T04:58:06;96005.00;;;18.72;100.00
2397;BME280;1209;48.410;9.054;2023-07-30T05:00:31;96017.88;;;18.68;100.00
2397;BME280;1209;48.410;9.054;2023-07-30T05:02:57;96018.47;;;18.70;100.00
2397;BME280;1209;48.410;9.054;2023-07-30T05:05:22;96010.88;;;18.74;100.00
2397;BME280;1209;48.410;9.054;2023-07-30T05:07:47;96014.44;;;18.68;100.00
2397;BME280;1209;48.410;9.054;2023-07-30T05:10:12;96019.38;;;18.64;100.00
2397;BME280;1209;48.410;9.054;2023-07-30T05:12:38;96023.88;;;18.64;100.00
2397;BME280;1209;48.410;9.054;2023-07-30T05:15:03;96026.63;;;18.69;100.00
2397;BME280;1209;48.410;9.054;2023-07-30T05:17:29;96023.41;;;18.67;100.00
2397;BME280;1209;48.410;9.054;2023-07-30T05:19:55;96035.47;;;18.74;100.00
2397;BME280;1209;48.410;9.054;2023-07-30T05:22:20;96030.41;;;18.73;100.00
2397;BME280;1209;48.410;9.054;2023-07-30T05:24:45;96038.22;;;18.79;100.00
2397;BME280;1209;48.410;9.054;2023-07-30T05:27:11;96042.72;;;18.79;100.00
2397;BME280;1209;48.410;9.054;2023-07-30T05:29:36;96043.19;;;18.76;100.00
2397;BME280;1209;48.410;9.054;2023-07-30T05:32:02;96040.88;;;18.91;100.00
2397;BME280;1209;48.410;9.054;2023-07-30T05:34:27;96040.88;;;19.03;100.00
2397;BME280;1209;48.410;9.054;2023-07-30T05:36:52;96050.28;;;19.10;100.00
2397;BME280;1209;48.410;9.054;2023-07-30T05:39:17;96047.28;;;19.18;100.00
2397;BME280;1209;48.410;9.054;2023-07-30T05:41:43;96042.31;;;19.22;100.00
2397;BME280;1209;48.410;9.054;2023-07-30T05:44:08;96040.00;;;19.26;100.00
2397;BME280;1209;48.410;9.054;2023-07-30T05:46:33;96043.59;;;19.19;100.00
2397;BME280;1209;48.410;9.054;2023-07-30T05:48:58;96044.13;;;19.33;100.00
2397;BME280;1209;48.410;9.054;2023-07-30T05:51:24;96056.91;;;19.36;100.00
2397;BME280;1209;48.410;9.054;2023-07-30T05:53:49;96053.34;;;19.42;100.00
2397;BME280;1209;48.410;9.054;2023-07-30T05:56:14;96050.22;;;19.34;100.00
2397;BME280;1209;48.410;9.054;2023-07-30T05:58:43;96050.94;;;19.29;100.00
2397;BME280;1209;48.410;9.054;2023-07-30T06:01:08;96051.50;;;19.31;100.00
2397;BME280;1209;48.410;9.054;2023-07-30T06:03:34;96053.91;;;19.33;100.00
2397;BME280;1209;48.410;9.054;2023-07-30T06:06:01;96061.53;;;19.29;100.00
2397;BME280;1209;48.410;9.054;2023-07-30T06:08:26;96055.09;;;19.25;100.00
2397;BME280;1209;48.410;9.054;2023-07-30T06:10:51;96063.50;;;19.22;100.00
2397;BME280;1209;48.410;9.054;2023-07-30T06:13:17;96067.28;;;19.26;100.00
2397;BME280;1209;48.410;9.054;2023-07-30T06:15:42;96066.28;;;19.15;100.00
2397;BME280;1209;48.410;9.054;2023-07-30T06:18:07;96062.81;;;19.15;100.00
2397;BME280;1209;48.410;9.054;2023-07-30T06:20:32;96061.34;;;19.07;100.00
2397;BME280;1209;48.410;9.054;2023-07-30T06:22:58;96060.19;;;19.15;100.00
2397;BME280;1209;48.410;9.054;2023-07-30T06:25:23;96058.47;;;19.09;100.00
2397;BME280;1209;48.410;9.054;2023-07-30T06:27:48;96054.22;;;18.84;100.00
2397;BME280;1209;48.410;9.054;2023-07-30T06:30:14;96050.66;;;18.91;100.00
2397;BME280;1209;48.410;9.054;2023-07-30T06:32:39;96062.97;;;19.08;100.00
2397;BME280;1209;48.410;9.054;2023-07-30T06:35:05;96055.22;;;19.18;100.00
2397;BME280;1209;48.410;9.054;2023-07-30T06:37:30;96052.22;;;19.27;100.00
2397;BME280;1209;48.410;9.054;2023-07-30T06:39:55;96054.81;;;19.38;100.00
2397;BME280;1209;48.410;9.054;2023-07-30T06:42:21;96070.81;;;19.55;100.00
2397;BME280;1209;48.410;9.054;2023-07-30T06:44:46;96074.09;;;19.74;100.00
2397;BME280;1209;48.410;9.054;2023-07-30T06:47:11;96077.03;;;19.89;100.00
2397;BME280;1209;48.410;9.054;2023-07-30T06:49:37;96081.19;;;20.13;100.00
2397;BME280;1209;48.410;9.054;2023-07-30T06:52:02;96087.53;;;20.41;100.00
2397;BME280;1209;48.410;9.054;2023-07-30T06:54:29;96085.41;;;20.60;100.00
2397;BME280;1209;48.410;9.054;2023-07-30T06:56:54;96085.50;;;20.82;100.00
2397;BME280;1209;48.410;9.054;2023-07-30T06:59:20;96096.97;;;21.04;100.00
2397;BME280;1209;48.410;9.054;2023-07-30T07:01:45;96092.94;;;21.01;100.00
2397;BME280;1209;48.410;9.054;2023-07-30T07:04:10;96094.88;;;21.06;100.00
2397;BME280;1209;48.410;9.054;2023-07-30T07:06:35;96091.13;;;20.85;100.00
2397;BME280;1209;48.410;9.054;2023-07-30T07:09:01;96091.84;;;20.64;100.00
2397;BME280;1209;48.410;9.054;2023-07-30T07:11:26;96094.28;;;20.49;100.00
2397;BME280;1209;48.410;9.054;2023-07-30T07:13:51;96083.16;;;20.35;100.00
2397;BME280;1209;48.410;9.054;2023-07-30T07:16:17;96078.41;;;20.37;100.00
2397;BME280;1209;48.410;9.054;2023-07-30T07:18:42;96090.50;;;20.45;100.00
2397;BME280;1209;48.410;9.054;2023-07-30T07:21:07;96082.53;;;20.45;100.00
2397;BME280;1209;48.410;9.054;2023-07-30T07:23:33;96085.75;;;20.47;100.00
2397;BME280;1209;48.410;9.054;2023-07-30T07:25:58;96076.16;;;20.62;100.00
2397;BME280;1209;48.410;9.054;2023-07-30T07:28:24;96075.91;;;20.81;100.00
2397;BME280;1209;48.410;9.054;2023-07-30T07:30:49;96085.50;;;21.20;100.00
2397;BME280;1209;48.410;9.054;2023-07-30T07:33:15;96087.97;;;21.44;100.00
2397;BME280;1209;48.410;9.054;2023-07-30T07:35:40;96084.19;;;21.40;100.00
2397;BME280;1209;48.410;9.054;2023-07-30T07:38:05;96097.09;;;21.14;100.00
2397;BME280;1209;48.410;9.054;2023-07-30T07:40:38;96103.09;;;21.04;100.00
2397;BME280;1209;48.410;9.054;2023-07-30T07:43:08;96098.41;;;21.12;100.00
2397;BME280;1209;48.410;9.054;2023-07-30T07:45:33;96112.47;;;21.12;100.00
2397;BME280;1209;48.410;9.054;2023-07-30T07:47:59;96109.50;;;21.25;100.00
2397;BME280;1209;48.410;9.054;2023-07-30T07:50:24;96110.38;;;21.14;100.00
2397;BME280;1209;48.410;9.054;2023-07-30T07:52:49;96121.13;;;20.86;100.00
2397;BME280;1209;48.410;9.054;2023-07-30T07:55:16;96128.53;;;20.67;100.00
2397;BME280;1209;48.410;9.054;2023-07-30T07:57:42;96119.19;;;20.48;100.00
2397;BME280;1209;48.410;9.054;2023-07-30T08:00:07;96130.31;;;20.33;100.00
2397;BME280;1209;48.410;9.054;2023-07-30T08:02:34;96122.56;;;20.60;100.00
2397;BME280;1209;48.410;9.054;2023-07-30T08:04:59;96120.66;;;20.55;100.00
2397;BME280;1209;48.410;9.054;2023-07-30T08:07:24;96121.28;;;20.96;100.00
2397;BME280;1209;48.410;9.054;2023-07-30T08:09:50;96121.56;;;21.16;100.00
2397;BME280;1209;48.410;9.054;2023-07-30T08:12:16;96123.19;;;21.34;100.00
2397;BME280;1209;48.410;9.054;2023-07-30T08:14:42;96114.41;;;21.55;100.00
2397;BME280;1209;48.410;9.054;2023-07-30T08:17:07;96109.78;;;21.67;100.00
2397;BME280;1209;48.410;9.054;2023-07-30T08:19:32;96109.84;;;21.51;100.00
2397;BME280;1209;48.410;9.054;2023-07-30T08:21:59;96116.69;;;21.68;100.00
2397;BME280;1209;48.410;9.054;2023-07-30T08:24:24;96113.47;;;21.88;100.00
2397;BME280;1209;48.410;9.054;2023-07-30T08:26:49;96115.34;;;21.88;100.00
2397;BME280;1209;48.410;9.054;2023-07-30T08:29:15;96111.69;;;21.94;100.00
2397;BME280;1209;48.410;9.054;2023-07-30T08:31:41;96116.50;;;21.97;100.00
2397;BME280;1209;48.410;9.054;2023-07-30T08:34:06;96108.66;;;21.85;100.00
2397;BME280;1209;48.410;9.054;2023-07-30T08:36:32;96110.16;;;21.76;100.00
2397;BME280;1209;48.410;9.054;2023-07-30T08:38:57;96104.34;;;21.79;100.00
2397;BME280;1209;48.410;9.054;2023-07-30T08:41:23;96098.09;;;21.68;100.00
2397;BME280;1209;48.410;9.054;2023-07-30T08:43:48;96102.91;;;21.72;100.00
2397;BME280;1209;48.410;9.054;2023-07-30T08:46:14;96106.50;;;21.82;100.00
2397;BME280;1209;48.410;9.054;2023-07-30T08:48:40;96102.44;;;22.02;100.00
2397;BME280;1209;48.410;9.054;2023-07-30T08:51:05;96105.78;;;22.14;100.00
2397;BME280;1209;48.410;9.054;2023-07-30T08:53:30;96105.91;;;22.24;100.00
2397;BME280;1209;48.410;9.054;2023-07-30T08:55:56;96107.69;;;22.18;100.00
2397;BME280;1209;48.410;9.054;2023-07-30T08:58:26;96117.56;;;21.96;100.00
2397;BME280;1209;48.410;9.054;2023-07-30T09:00:55;96109.31;;;21.76;100.00
2397;BME280;1209;48.410;9.054;2023-07-30T09:03:20;96117.75;;;21.67;100.00
2397;BME280;1209;48.410;9.054;2023-07-30T09:05:48;96118.88;;;21.50;100.00
2397;BME280;1209;48.410;9.054;2023-07-30T09:08:14;96124.13;;;21.28;100.00
2397;BME280;1209;48.410;9.054;2023-07-30T09:10:40;96130.63;;;20.82;100.00
2397;BME280;1209;48.410;9.054;2023-07-30T09:13:05;96139.53;;;20.75;100.00
2397;BME280;1209;48.410;9.054;2023-07-30T09:15:31;96137.03;;;20.69;100.00
2397;BME280;1209;48.410;9.054;2023-07-30T09:17:57;96132.78;;;20.51;100.00
2397;BME280;1209;48.410;9.054;2023-07-30T09:20:23;96147.25;;;20.43;100.00
2397;BME280;1209;48.410;9.054;2023-07-30T09:22:48;96144.84;;;20.30;100.00
2397;BME280;1209;48.410;9.054;2023-07-30T09:25:18;96150.34;;;20.12;100.00
2397;BME280;1209;48.410;9.054;2023-07-30T09:27:50;96159.03;;;20.07;100.00
2397;BME280;1209;48.410;9.054;2023-07-30T09:30:21;96159.06;;;19.96;100.00
2397;BME280;1209;48.410;9.054;2023-07-30T09:32:51;96164.50;;;20.18;100.00
2397;BME280;1209;48.410;9.054;2023-07-30T09:35:17;96158.25;;;20.24;100.00
2397;BME280;1209;48.410;9.054;2023-07-30T09:37:42;96161.56;;;20.31;100.00
2397;BME280;1209;48.410;9.054;2023-07-30T09:40:09;96168.81;;;20.47;100.00
2397;BME280;1209;48.410;9.054;2023-07-30T09:42:36;96165.19;;;20.53;100.00
2397;BME280;1209;48.410;9.054;2023-07-30T09:45:05;96166.63;;;20.44;100.00
2397;BME280;1209;48.410;9.054;2023-07-30T09:47:32;96176.44;;;20.43;100.00
2397;BME280;1209;48.410;9.054;2023-07-30T09:49:59;96181.31;;;20.35;100.00
2397;BME280;1209;48.410;9.054;2023-07-30T09:52:24;96176.91;;;20.40;100.00
2397;BME280;1209;48.410;9.054;2023-07-30T09:54:51;96179.91;;;20.78;100.00
2397;BME280;1209;48.410;9.054;2023-07-30T09:57:17;96169.06;;;20.79;100.00
2397;BME280;1209;48.410;9.054;2023-07-30T09:59:42;96182.97;;;20.69;100.00
2397;BME280;1209;48.410;9.054;2023-07-30T10:02:10;96189.00;;;20.48;100.00
2397;BME280;1209;48.410;9.054;2023-07-30T10:04:40;96189.00;;;20.36;100.00
2397;BME280;1209;48.410;9.054;2023-07-30T10:07:11;96190.31;;;20.22;100.00
2397;BME280;1209;48.410;9.054;2023-07-30T10:09:39;96201.03;;;20.27;100.00
2397;BME280;1209;48.410;9.054;2023-07-30T10:12:16;96201.34;;;20.02;100.00
2397;BME280;1209;48.410;9.054;2023-07-30T10:14:43;96203.72;;;19.87;100.00
2397;BME280;1209;48.410;9.054;2023-07-30T10:17:10;96209.13;;;19.80;100.00
2397;BME280;1209;48.410;9.054;2023-07-30T10:19:35;96212.72;;;19.63;100.00
2397;BME280;1209;48.410;9.054;2023-07-30T10:22:23;96221.38;;;19.58;100.00
2397;BME280;1209;48.410;9.054;2023-07-30T10:25:10;96221.00;;;19.66;100.00
2397;BME280;1209;48.410;9.054;2023-07-30T10:27:39;96223.53;;;19.73;100.00
2397;BME280;1209;48.410;9.054;2023-07-30T10:30:10;96235.28;;;19.77;100.00
2397;BME280;1209;48.410;9.054;2023-07-30T10:32:58;96232.72;;;19.82;100.00
2397;BME280;1209;48.410;9.054;2023-07-30T10:35:40;96227.91;;;19.91;100.00
2397;BME280;1209;48.410;9.054;2023-07-30T10:38:27;96228.41;;;20.16;100.00
2397;BME280;1209;48.410;9.054;2023-07-30T10:41:15;96234.88;;;20.08;100.00
2397;BME280;1209;48.410;9.054;2023-07-30T10:43:47;96227.59;;;20.16;100.00
2397;BME280;1209;48.410;9.054;2023-07-30T10:46:14;96226.22;;;20.13;100.00
2397;BME280;1209;48.410;9.054;2023-07-30T10:48:41;96219.97;;;20.19;100.00
2397;BME280;1209;48.410;9.054;2023-07-30T10:51:12;96214.84;;;20.29;100.00
2397;BME280;1209;48.410;9.054;2023-07-30T10:53:38;96220.25;;;20.46;100.00
2397;BME280;1209;48.410;9.054;2023-07-30T10:56:06;96217.47;;;20.53;100.00
2397;BME280;1209;48.410;9.054;2023-07-30T10:58:32;96217.94;;;20.50;100.00
2397;BME280;1209;48.410;9.054;2023-07-30T11:00:58;96225.84;;;20.61;100.00
2397;BME280;1209;48.410;9.054;2023-07-30T11:03:27;96221.31;;;20.62;100.00
2397;BME280;1209;48.410;9.054;2023-07-30T11:05:53;96211.97;;;20.88;100.00
2397;BME280;1209;48.410;9.054;2023-07-30T11:08:19;96219.53;;;21.13;100.00
2397;BME280;1209;48.410;9.054;2023-07-30T11:10:45;96213.69;;;22.05;100.00
2397;BME280;1209;48.410;9.054;2023-07-30T11:13:12;96220.16;;;22.84;100.00
2397;BME280;1209;48.410;9.054;2023-07-30T11:15:44;96213.38;;;23.04;100.00
2397;BME280;1209;48.410;9.054;2023-07-30T11:18:13;96208.25;;;22.70;100.00
2397;BME280;1209;48.410;9.054;2023-07-30T11:20:39;96211.28;;;22.79;100.00
2397;BME280;1209;48.410;9.054;2023-07-30T11:23:19;96208.19;;;22.87;100.00
2397;BME280;1209;48.410;9.054;2023-07-30T11:25:46;96211.94;;;22.64;100.00
2397;BME280;1209;48.410;9.054;2023-07-30T11:28:13;96207.22;;;22.98;100.00
2397;BME280;1209;48.410;9.054;2023-07-30T11:30:38;96207.59;;;23.12;100.00
2397;BME280;1209;48.410;9.054;2023-07-30T11:33:03;96206.34;;;22.87;100.00
2397;BME280;1209;48.410;9.054;2023-07-30T11:35:29;96211.38;;;22.62;100.00
2397;BME280;1209;48.410;9.054;2023-07-30T11:37:54;96202.56;;;22.29;100.00
2397;BME280;1209;48.410;9.054;2023-07-30T11:40:22;96211.75;;;22.00;100.00
2397;BME280;1209;48.410;9.054;2023-07-30T11:42:47;96205.25;;;22.35;100.00
2397;BME280;1209;48.410;9.054;2023-07-30T11:45:20;96210.13;;;22.43;100.00
2397;BME280;1209;48.410;9.054;2023-07-30T11:47:46;96212.69;;;22.33;100.00
2397;BME280;1209;48.410;9.054;2023-07-30T11:50:11;96215.84;;;22.08;100.00
2397;BME280;1209;48.410;9.054;2023-07-30T11:52:51;96204.72;;;22.11;100.00
2397;BME280;1209;48.410;9.054;2023-07-30T11:55:16;96207.88;;;22.08;100.00
2397;BME280;1209;48.410;9.054;2023-07-30T11:57:41;96217.88;;;22.00;100.00
2397;BME280;1209;48.410;9.054;2023-07-30T12:00:07;96225.94;;;22.06;100.00
2397;BME280;1209;48.410;9.054;2023-07-30T12:02:33;96223.84;;;22.08;100.00
2397;BME280;1209;48.410;9.054;2023-07-30T12:04:58;96217.13;;;23.03;100.00
2397;BME280;1209;48.410;9.054;2023-07-30T12:07:24;96213.97;;;23.90;100.00
2397;BME280;1209;48.410;9.054;2023-07-30T12:09:50;96219.72;;;24.19;94.84
2397;BME280;1209;48.410;9.054;2023-07-30T12:12:15;96212.16;;;24.06;93.28
2397;BME280;1209;48.410;9.054;2023-07-30T12:14:53;96214.72;;;24.28;88.78
2397;BME280;1209;48.410;9.054;2023-07-30T12:17:18;96210.09;;;24.18;86.37
2397;BME280;1209;48.410;9.054;2023-07-30T12:19:43;96217.41;;;24.43;84.39
2397;BME280;1209;48.410;9.054;2023-07-30T12:22:09;96212.78;;;24.23;85.38
2397;BME280;1209;48.410;9.054;2023-07-30T12:24:35;96212.34;;;24.46;85.00
2397;BME280;1209;48.410;9.054;2023-07-30T12:27:01;96207.34;;;24.70;82.80
2397;BME280;1209;48.410;9.054;2023-07-30T12:29:26;96204.72;;;25.16;81.93
2397;BME280;1209;48.410;9.054;2023-07-30T12:31:51;96206.06;;;25.14;78.74
2397;BME280;1209;48.410;9.054;2023-07-30T12:34:18;96197.22;;;25.23;76.80
2397;BME280;1209;48.410;9.054;2023-07-30T12:36:44;96203.06;;;25.51;75.01
2397;BME280;1209;48.410;9.054;2023-07-30T12:39:09;96198.22;;;25.53;76.22
2397;BME280;1209;48.410;9.054;2023-07-30T12:41:34;96202.50;;;25.74;73.38
2397;BME280;1209;48.410;9.054;2023-07-30T12:44:00;96198.78;;;25.70;70.33
2397;BME280;1209;48.410;9.054;2023-07-30T12:46:25;96189.88;;;25.90;73.48
2397;BME280;1209;48.410;9.054;2023-07-30T12:48:55;96205.25;;;26.28;73.70
2397;BME280;1209;48.410;9.054;2023-07-30T12:51:20;96209.22;;;25.56;76.87
2397;BME280;1209;48.410;9.054;2023-07-30T12:53:46;96200.63;;;25.64;78.19
2397;BME280;1209;48.410;9.054;2023-07-30T12:56:11;96202.50;;;25.79;80.54
2397;BME280;1209;48.410;9.054;2023-07-30T12:58:37;96201.94;;;25.82;77.62
2397;BME280;1209;48.410;9.054;2023-07-30T13:01:03;96203.06;;;25.66;84.15
2397;BME280;1209;48.410;9.054;2023-07-30T13:03:29;96204.09;;;25.75;79.33
2397;BME280;1209;48.410;9.054;2023-07-30T13:05:54;96211.91;;;25.36;80.62
2397;BME280;1209;48.410;9.054;2023-07-30T13:08:20;96209.19;;;24.70;78.86